SARL/AOL METAR and TAF weather

Enter ICAO airport designator
Station Type Date Time Source
SARL METAR 2019/09/21 21:00 UTC NOAA

SARL 212100Z 18009KT 8000 NSC 21/02 Q1020


Station Type Date Time Source
SARL Decoded METAR 2019/09/21 21:00 UTC NOAA

Paso De Los Libres Aerodrome, Argentina (SARL) 29-41S 057-09W 70M
Sep 21, 2019 - 05:00 PM EDT / 2019.09.21 2100 UTC
Wind: from the S (180 degrees) at 10 MPH (9 KT):0
Visibility: 4 mile(s):0
Temperature: 69 F (21 C)
Dew Point: 35 F (2 C)
Relative Humidity: 28%
Pressure (altimeter): 30.12 in. Hg (1020 hPa)
ob: SARL 212100Z 18009KT 8000 NSC 21/02 Q1020
cycle: 21

Station Type Date Time Source
SARL TAF UTC NOAA

Error!

Example: see airport list